Time;durP1;ratioP1;P1;durP2;ratioP2;P2;SDS_P1;SDS_P2;PMS_P1;PMS_P2;Temp;Humidity;BMP_temperature;BMP_pressure;BME280_temperature;BME280_humidity;BME280_pressure;Samples;Min_cycle;Max_cycle;Signal;HPM_P1;HPM_P2
2022/09/12 00:02:24;;;;;;;;;;;14.50;99.90;;;;;;5073960;28;19920;-61
2022/09/12 00:04:50;;;;;;;;;;;14.50;99.90;;;;;;5074235;28;19917;-61
2022/09/12 00:07:16;;;;;;;;;;;14.50;99.90;;;;;;5074464;28;19966;-61
2022/09/12 00:09:42;;;;;;;;;;;;;;;;;;5073840;28;19921;-61
2022/09/12 00:12:07;;;;;;;;;;;14.40;99.90;;;;;;5074397;28;19930;-61
2022/09/12 00:14:33;;;;;;;;;;;14.40;99.90;;;;;;5074834;28;20394;-61
2022/09/12 00:16:59;;;;;;;;;;;14.40;99.90;;;;;;5073913;28;19975;-61
2022/09/12 00:19:26;;;;;;;;;;;14.40;99.90;;;;;;5061039;28;19921;-61
2022/09/12 00:21:52;;;;;;;;;;;14.40;99.90;;;;;;5054796;28;20002;-61
2022/09/12 00:24:17;;;;;;;;;;;14.40;99.90;;;;;;5053612;28;19960;-61
2022/09/12 00:26:43;;;;;;;;;;;14.30;99.90;;;;;;5053695;28;19920;-61
2022/09/12 00:29:14;;;;;;;;;;;14.30;99.90;;;;;;5052927;28;20281;-61
2022/09/12 00:31:40;;;;;;;;;;;14.30;99.90;;;;;;5053177;28;20313;-61
2022/09/12 00:34:05;;;;;;;;;;;14.30;99.90;;;;;;5054136;28;19947;-61
2022/09/12 00:36:31;;;;;;;;;;;14.30;99.90;;;;;;5053203;28;20366;-61
2022/09/12 00:38:57;;;;;;;;;;;14.20;99.90;;;;;;5053262;28;20476;-61
2022/09/12 00:41:25;;;;;;;;;;;14.30;99.90;;;;;;5053179;28;19920;-61
2022/09/12 00:43:52;;;;;;;;;;;14.20;99.90;;;;;;5065497;28;19917;-61
2022/09/12 00:46:27;;;;;;;;;;;14.20;99.90;;;;;;5035357;28;19939;-61
2022/09/12 00:49:12;;;;;;;1999.90;999.90;;;14.00;99.90;;;;;;5053332;28;19920;-61
2022/09/12 00:51:40;;;;;;;1999.90;999.90;;;14.00;99.90;;;;;;5051951;28;20124;-61
2022/09/12 00:54:11;;;;;;;1999.90;999.90;;;13.90;99.90;;;;;;5052769;28;20033;-61
2022/09/12 00:56:40;;;;;;;1999.90;999.90;;;13.80;99.90;;;;;;5052305;28;20140;-61
2022/09/12 00:59:12;;;;;;;1999.90;999.90;;;13.80;99.90;;;;;;5052864;28;20490;-61
2022/09/12 01:01:40;;;;;;;1999.90;999.90;;;13.70;99.90;;;;;;5053514;28;20049;-61
2022/09/12 01:04:08;;;;;;;1999.90;999.90;;;13.70;99.90;;;;;;5052917;28;20072;-61
2022/09/12 01:06:39;;;;;;;1999.90;999.90;;;13.70;99.90;;;;;;5051403;28;20041;-61
2022/09/12 01:09:05;;;;;;;1999.90;999.90;;;13.70;99.90;;;;;;5073546;28;20048;-61
2022/09/12 01:11:35;;;;;;;1999.90;999.90;;;13.70;99.90;;;;;;5072353;28;20398;-61
2022/09/12 01:14:00;;;;;;;1999.90;999.90;;;13.70;99.90;;;;;;5033139;28;20108;-61
2022/09/12 01:16:26;;;;;;;1999.90;999.90;;;13.70;99.90;;;;;;5033089;28;20041;-61
2022/09/12 01:19:11;;;;;;;1999.90;999.90;;;13.70;99.90;;;;;;5048955;28;20052;-61
2022/09/12 01:21:50;;;;;;;1999.90;999.90;;;13.80;99.90;;;;;;5052844;28;20049;-61
2022/09/12 01:24:33;;;;;;;1999.90;999.90;;;13.80;99.90;;;;;;5052952;28;20482;-61
2022/09/12 01:27:14;;;;;;;1999.90;999.90;;;13.80;99.90;;;;;;5051671;28;20102;-61
2022/09/12 01:30:22;;;;;;;1999.90;999.90;;;13.80;99.90;;;;;;5052832;28;20386;-61
2022/09/12 01:33:19;;;;;;;1999.90;999.90;;;13.80;99.90;;;;;;5034647;28;20132;-61
2022/09/12 01:36:24;;;;;;;1999.90;999.90;;;13.80;99.90;;;;;;5034788;28;20041;-61
2022/09/12 01:39:04;;;;;;;1999.90;999.90;;;13.80;99.90;;;;;;5052319;28;20081;-61
2022/09/12 01:41:45;;;;;;;1999.90;999.90;;;13.80;99.90;;;;;;5033861;28;20045;-61
2022/09/12 01:44:36;;;;;;;1999.90;999.90;;;13.70;99.90;;;;;;5052928;28;20049;-60
2022/09/12 01:47:10;;;;;;;1999.90;999.90;;;13.70;99.90;;;;;;5033509;28;20510;-61
2022/09/12 01:49:45;;;;;;;1999.90;999.90;;;13.70;99.90;;;;;;5052656;28;20036;-61
2022/09/12 01:52:23;;;;;;;1999.90;999.90;;;13.60;99.90;;;;;;5052711;28;20033;-61
2022/09/12 01:55:12;;;;;;;1999.90;999.90;;;13.60;99.90;;;;;;5052057;28;20053;-61
2022/09/12 01:57:45;;;;;;;1999.90;999.90;;;13.60;99.90;;;;;;5051615;28;20033;-61
2022/09/12 02:00:12;;;;;;;1999.90;999.90;;;13.60;99.90;;;;;;5052716;28;20049;-61
2022/09/12 02:02:50;;;;;;;1999.90;999.90;;;13.60;99.90;;;;;;5032784;28;20040;-61
2022/09/12 02:05:19;;;;;;;1999.90;999.90;;;13.50;99.90;;;;;;5052040;28;20064;-61
2022/09/12 02:07:51;;;;;;;1999.90;999.90;;;13.50;99.90;;;;;;5051972;28;20064;-61
2022/09/12 02:10:23;;;;;;;1999.90;999.90;;;13.50;99.90;;;;;;5051718;28;20048;-61
2022/09/12 02:13:12;;;;;;;1999.90;999.90;;;13.50;99.90;;;;;;5050078;28;20049;-61
2022/09/12 02:15:44;;;;;;;1999.90;999.90;;;13.50;99.90;;;;;;5033275;28;20060;-61
2022/09/12 02:18:14;;;;;;;1999.90;999.90;;;13.50;99.90;;;;;;5054203;28;20059;-61
2022/09/12 02:20:42;;;;;;;1999.90;999.90;;;13.50;99.90;;;;;;5054519;28;20436;-61
2022/09/12 02:23:13;;;;;;;1999.90;999.90;;;13.50;99.90;;;;;;5071468;28;20029;-61
2022/09/12 02:25:43;;;;;;;1999.90;999.90;;;13.50;99.90;;;;;;5071757;28;20051;-61
2022/09/12 02:28:15;;;;;;;1999.90;999.90;;;13.50;99.90;;;;;;5072067;28;20051;-61
2022/09/12 02:30:58;;;;;;;1999.90;999.90;;;13.50;99.90;;;;;;5071413;28;20052;-61
2022/09/12 02:33:27;;;;;;;;;;;13.50;99.90;;;;;;5051405;28;19928;-61
2022/09/12 02:35:57;;;;;;;;;;;13.40;99.90;;;;;;5069316;28;19920;-61
2022/09/12 02:38:30;;;;;;;1999.90;999.90;;;13.40;99.90;;;;;;5071658;28;20011;-61
2022/09/12 02:40:56;;;;;;;1999.90;999.90;;;13.40;99.90;;;;;;5071753;28;20075;-61
2022/09/12 02:43:22;;;;;;;1999.90;999.90;;;13.40;99.90;;;;;;5071693;28;20108;-61
2022/09/12 02:45:48;;;;;;;1999.90;999.90;;;13.40;99.90;;;;;;5072372;28;20470;-61
2022/09/12 02:48:20;;;;;;;1999.90;999.90;;;13.40;99.90;;;;;;5072135;28;20048;-61
2022/09/12 02:50:46;;;;;;;1999.90;999.90;;;13.30;99.90;;;;;;5070937;28;20482;-61
2022/09/12 02:53:12;;;;;;;1999.90;999.90;;;13.30;99.90;;;;;;5054138;28;20033;-61
2022/09/12 02:55:40;;;;;;;1999.90;999.90;;;13.30;99.90;;;;;;5071883;28;20110;-61
2022/09/12 02:58:11;;;;;;;1999.90;999.90;;;13.20;99.90;;;;;;5053294;28;20492;-61
2022/09/12 03:00:48;;;;;;;1999.90;999.90;;;13.20;99.90;;;;;;5054077;28;20449;-61
2022/09/12 03:03:22;;;;;;;1999.90;999.90;;;13.10;99.90;;;;;;5071582;28;20044;-61
2022/09/12 03:05:58;;;;;;;1999.90;999.90;;;13.10;99.90;;;;;;5071387;28;20162;-61
2022/09/12 03:08:48;;;;;;;1999.90;999.90;;;13.10;99.90;;;;;;5055597;28;20118;-61
2022/09/12 03:11:29;;;;;;;1999.90;999.90;;;13.10;99.90;;;;;;5074440;28;20121;-61
2022/09/12 03:14:20;;;;;;;1999.90;999.90;;;13.00;99.90;;;;;;5075514;28;20045;-61
2022/09/12 03:16:58;;;;;;;1999.90;999.90;;;13.00;99.90;;;;;;5066715;28;20106;-61
2022/09/12 03:19:39;;;;;;;1999.90;999.90;;;12.90;99.90;;;;;;5074284;28;20583;-61
2022/09/12 03:22:20;;;;;;;1999.90;999.90;;;12.90;99.90;;;;;;5075452;28;20048;-61
2022/09/12 03:24:46;;;;;;;1999.90;999.90;;;12.80;99.90;;;;;;5074956;28;20493;-61
2022/09/12 03:27:16;;;;;;;1999.90;999.90;;;12.70;99.90;;;;;;5074407;28;20119;-61
2022/09/12 03:29:46;;;;;;;1999.90;999.90;;;12.50;99.90;;;;;;5075212;28;20047;-61
2022/09/12 03:32:12;;;;;;;1999.90;999.90;;;12.50;99.90;;;;;;5056848;28;20102;-61
2022/09/12 03:34:37;;;;;;;1999.90;999.90;;;12.40;99.90;;;;;;5074194;28;20482;-61
2022/09/12 03:37:04;;;;;;;1999.90;999.90;;;12.60;99.90;;;;;;5075576;28;20052;-61
2022/09/12 03:39:30;;;;;;;1999.90;999.90;;;12.50;99.90;;;;;;5055819;28;20048;-61
2022/09/12 03:41:56;;;;;;;1999.90;999.90;;;12.50;99.90;;;;;;5056877;28;20432;-61
2022/09/12 03:44:23;;;;;;;1999.90;999.90;;;12.40;99.90;;;;;;5074806;28;20040;-61
2022/09/12 03:46:49;;;;;;;1999.90;999.90;;;12.40;99.90;;;;;;5055551;28;20542;-61
2022/09/12 03:49:15;;;;;;;1999.90;999.90;;;12.40;99.90;;;;;;5075072;28;20132;-61
2022/09/12 03:51:42;;;;;;;1999.90;999.90;;;12.50;99.90;;;;;;5074538;28;20094;-61
2022/09/12 03:54:08;;;;;;;1999.90;999.90;;;12.50;99.90;;;;;;5073903;28;20550;-61
2022/09/12 03:56:34;;;;;;;1999.90;999.90;;;12.50;99.90;;;;;;5074937;28;20083;-61
2022/09/12 03:59:03;;;;;;;1999.90;999.90;;;12.50;99.90;;;;;;5074700;28;20135;-61
2022/09/12 04:01:29;;;;;;;1999.90;999.90;;;12.50;99.90;;;;;;5073382;28;20048;-61
2022/09/12 04:03:54;;;;;;;1999.90;999.90;;;12.40;99.90;;;;;;5074686;28;20406;-61
2022/09/12 04:06:21;;;;;;;1999.90;999.90;;;12.30;99.90;;;;;;5056373;28;20483;-61
2022/09/12 04:08:50;;;;;;;1999.90;999.90;;;12.30;99.90;;;;;;5073171;28;20498;-61
2022/09/12 04:11:16;;;;;;;1999.90;999.90;;;12.30;99.90;;;;;;5074621;28;20505;-61
2022/09/12 04:13:44;;;;;;;1999.90;999.90;;;12.30;99.90;;;;;;5074239;28;20124;-61
2022/09/12 04:16:11;;;;;;;1999.90;999.90;;;12.40;99.90;;;;;;5073452;28;20047;-61
2022/09/12 04:18:37;;;;;;;1999.90;999.90;;;12.50;99.90;;;;;;5088714;28;20468;-61
2022/09/12 04:21:06;;;;;;;1999.90;999.90;;;12.60;99.90;;;;;;5073731;28;20036;-61
2022/09/12 04:23:32;;;;;;;1598.40;838.13;;;12.60;99.90;;;;;;5055069;28;20040;-61
2022/09/12 04:26:02;;;;;;;512.75;463.60;;;12.70;99.90;;;;;;5074292;28;20127;-61
2022/09/12 04:28:29;;;;;;;1999.90;999.90;;;12.70;99.90;;;;;;5073719;28;20048;-61
2022/09/12 04:30:55;;;;;;;1599.10;833.97;;;12.80;99.90;;;;;;5073193;28;20055;-61
2022/09/12 04:33:21;;;;;;;1999.90;999.90;;;12.70;99.90;;;;;;5074205;28;20044;-61
2022/09/12 04:35:47;;;;;;;1594.47;834.17;;;12.70;99.90;;;;;;5072589;28;20040;-61
2022/09/12 04:38:13;;;;;;;1999.90;999.90;;;12.70;99.90;;;;;;5073423;28;20036;-61
2022/09/12 04:40:39;;;;;;;1999.90;999.90;;;12.70;99.90;;;;;;5074004;28;20425;-61
2022/09/12 04:43:05;;;;;;;1999.90;999.90;;;12.70;99.90;;;;;;5054961;28;20040;-61
2022/09/12 04:45:32;;;;;;;1999.90;999.90;;;12.70;99.90;;;;;;5073192;28;20048;-61
2022/09/12 04:47:58;;;;;;;1999.90;999.90;;;12.70;99.90;;;;;;5073819;28;20131;-61
2022/09/12 04:50:24;;;;;;;1999.90;999.90;;;12.70;99.90;;;;;;5072878;28;20055;-61
2022/09/12 04:52:51;;;;;;;1999.90;999.90;;;12.80;99.90;;;;;;5072932;28;20116;-61
2022/09/12 04:55:17;;;;;;;912.10;622.72;;;12.90;99.90;;;;;;5073393;28;20498;-61
2022/09/12 04:57:43;;;;;;;1999.90;999.90;;;12.90;99.90;;;;;;5072702;28;20091;-61
2022/09/12 05:00:12;;;;;;;1999.90;999.90;;;12.90;99.90;;;;;;5071505;28;20056;-61
2022/09/12 05:02:38;;;;;;;1268.88;742.88;;;12.90;99.90;;;;;;5073023;28;20505;-61
2022/09/12 05:05:05;;;;;;;1617.55;855.90;;;13.00;99.90;;;;;;5072883;28;20044;-61
2022/09/12 05:07:31;;;;;;;1999.90;999.90;;;13.00;99.90;;;;;;5073142;28;20075;-61
2022/09/12 05:09:57;;;;;;;1999.90;999.90;;;13.00;99.90;;;;;;5055320;28;20091;-61
2022/09/12 05:12:23;;;;;;;1999.90;999.90;;;13.10;99.90;;;;;;5072130;28;20040;-61
2022/09/12 05:14:49;;;;;;;1999.90;999.90;;;13.10;99.90;;;;;;5054807;28;20059;-61
2022/09/12 05:17:15;;;;;;;1999.90;999.90;;;13.10;99.90;;;;;;5055216;28;20110;-61
2022/09/12 05:19:40;;;;;;;1999.90;999.90;;;13.20;99.90;;;;;;5071551;28;20486;-61
2022/09/12 05:22:06;;;;;;;1999.90;999.90;;;13.30;99.90;;;;;;5073032;28;20049;-61
2022/09/12 05:24:34;;;;;;;1999.90;999.90;;;13.30;99.90;;;;;;5072587;28;20082;-61
2022/09/12 05:26:59;;;;;;;1999.90;999.90;;;13.40;99.90;;;;;;5072087;28;20479;-61
2022/09/12 05:29:25;;;;;;;1999.90;999.90;;;13.50;99.90;;;;;;5072811;28;20097;-61
2022/09/12 05:31:51;;;;;;;1298.65;768.28;;;13.60;99.90;;;;;;5071950;28;20545;-61
2022/09/12 05:34:18;;;;;;;1999.90;999.90;;;13.70;99.90;;;;;;5073106;28;20080;-61
2022/09/12 05:36:44;;;;;;;1999.90;999.90;;;13.70;99.90;;;;;;5073079;28;20486;-61
2022/09/12 05:39:10;;;;;;;1656.03;891.00;;;13.80;99.90;;;;;;5071303;28;20056;-61
2022/09/12 05:41:36;;;;;;;1999.90;999.90;;;13.90;99.90;;;;;;5073059;28;20048;-61
2022/09/12 05:44:05;;;;;;;1304.50;772.05;;;14.00;99.90;;;;;;5072988;28;20044;-61
2022/09/12 05:46:37;;;;;;;1999.90;999.90;;;14.00;99.90;;;;;;5071302;28;20040;-61
2022/09/12 05:49:05;;;;;;;1999.90;999.90;;;14.10;99.90;;;;;;5072773;28;20040;-61
2022/09/12 05:51:33;;;;;;;1999.90;999.90;;;14.20;99.90;;;;;;5072935;28;20052;-61
2022/09/12 05:54:02;;;;;;;1999.90;999.90;;;14.20;99.90;;;;;;5071542;28;20044;-61
2022/09/12 05:56:32;;;;;;;1999.90;999.90;;;14.30;99.90;;;;;;5072452;28;20044;-61
2022/09/12 05:59:01;;;;;;;1999.90;999.90;;;14.40;99.90;;;;;;5072598;28;20125;-61
2022/09/12 06:01:28;;;;;;;1999.90;999.90;;;14.40;99.90;;;;;;5071787;28;20450;-61
2022/09/12 06:03:56;;;;;;;1999.90;999.90;;;;;;;;;;5072148;28;20159;-61
2022/09/12 06:06:23;;;;;;;1999.90;999.90;;;14.50;99.90;;;;;;5072584;28;20052;-61
2022/09/12 06:08:51;;;;;;;1999.90;999.90;;;14.50;99.90;;;;;;5071595;28;20044;-61
2022/09/12 06:11:19;;;;;;;1999.90;999.90;;;14.50;99.90;;;;;;5072498;28;20045;-61
2022/09/12 06:13:45;;;;;;;1999.90;999.90;;;14.50;99.90;;;;;;5072061;28;20572;-61
2022/09/12 06:16:15;;;;;;;1999.90;999.90;;;14.50;99.90;;;;;;5071309;28;20080;-61
2022/09/12 06:18:45;;;;;;;1999.90;999.90;;;14.50;99.90;;;;;;5072014;28;20045;-61
2022/09/12 06:21:11;;;;;;;1999.90;999.90;;;14.50;99.90;;;;;;5051469;28;20486;-61
2022/09/12 06:23:39;;;;;;;1999.90;999.90;;;14.50;99.90;;;;;;5072243;28;20047;-61
2022/09/12 06:26:06;;;;;;;1999.90;999.90;;;14.50;99.90;;;;;;5072443;28;20052;-61
2022/09/12 06:28:34;;;;;;;1999.90;999.90;;;14.60;99.90;;;;;;5053991;28;20464;-61
2022/09/12 06:31:03;;;;;;;1999.90;999.90;;;14.60;99.90;;;;;;5071726;28;20037;-61
2022/09/12 06:33:31;;;;;;;1999.90;999.90;;;14.60;99.90;;;;;;5054240;28;20520;-61
2022/09/12 06:36:03;;;;;;;1999.90;999.90;;;14.70;99.90;;;;;;5071412;28;20052;-61
2022/09/12 06:38:29;;;;;;;1999.90;999.90;;;14.80;99.90;;;;;;5072150;28;20048;-61
2022/09/12 06:40:56;;;;;;;1999.90;999.90;;;14.80;99.90;;;;;;5072128;28;20052;-61
2022/09/12 06:43:21;;;;;;;1999.90;999.90;;;14.90;99.90;;;;;;5073530;28;20053;-61
2022/09/12 06:45:48;;;;;;;1999.90;999.90;;;14.90;99.90;;;;;;5075920;28;20048;-61
2022/09/12 06:48:14;;;;;;;1999.90;999.90;;;15.00;99.90;;;;;;5075803;28;20051;-61
2022/09/12 06:50:40;;;;;;;1999.90;999.90;;;15.00;99.90;;;;;;5075198;28;20053;-61
2022/09/12 06:53:06;;;;;;;1999.90;999.90;;;15.10;99.90;;;;;;5075784;28;20048;-61
2022/09/12 06:55:32;;;;;;;1999.90;999.90;;;15.20;99.90;;;;;;5075715;28;20049;-61
2022/09/12 06:57:58;;;;;;;1999.90;999.90;;;15.20;99.90;;;;;;5074798;28;20044;-61
2022/09/12 07:00:24;;;;;;;1999.90;999.90;;;15.30;99.90;;;;;;5075466;28;20088;-61
2022/09/12 07:02:57;;;;;;;1999.90;999.90;;;15.30;99.90;;;;;;5075750;28;20135;-61
2022/09/12 07:05:22;;;;;;;1999.90;999.90;;;15.40;99.90;;;;;;5037003;28;20060;-61
2022/09/12 07:07:48;;;;;;;1999.90;999.90;;;15.40;99.90;;;;;;5074637;28;20084;-61
2022/09/12 07:10:14;;;;;;;1999.90;999.90;;;15.50;99.90;;;;;;5075656;28;20049;-61
2022/09/12 07:12:40;;;;;;;1999.90;999.90;;;15.50;99.90;;;;;;5074958;28;20045;-61
2022/09/12 07:15:06;;;;;;;1999.90;999.90;;;15.60;99.90;;;;;;5074460;28;20067;-61
2022/09/12 07:17:32;;;;;;;1999.90;999.90;;;15.60;99.90;;;;;;5074821;28;20428;-61
2022/09/12 07:19:57;;;;;;;1999.90;999.90;;;15.70;99.90;;;;;;5074753;28;20105;-61
2022/09/12 07:22:23;;;;;;;1999.90;999.90;;;15.70;99.90;;;;;;5057269;28;20110;-61
2022/09/12 07:24:49;;;;;;;1999.90;999.90;;;15.80;99.90;;;;;;5074337;28;20368;-61
2022/09/12 07:27:15;;;;;;;1999.90;999.90;;;15.80;99.90;;;;;;5057064;28;20127;-61
2022/09/12 07:29:40;;;;;;;1999.90;999.90;;;15.80;99.90;;;;;;5073694;28;20045;-61
2022/09/12 07:32:06;;;;;;;1999.90;999.90;;;15.90;99.90;;;;;;5056036;28;20486;-61
2022/09/12 07:34:33;;;;;;;1999.90;999.90;;;16.00;99.90;;;;;;5057182;28;20047;-62
2022/09/12 07:36:59;;;;;;;1999.90;999.90;;;16.00;99.90;;;;;;5074872;28;20060;-61
2022/09/12 07:39:25;;;;;;;1999.90;999.90;;;16.10;99.90;;;;;;5074262;28;20037;-61
2022/09/12 07:41:50;;;;;;;1999.90;999.90;;;16.20;99.90;;;;;;5074734;28;20055;-61
2022/09/12 07:44:16;;;;;;;1999.90;999.90;;;16.20;99.90;;;;;;5074461;28;20048;-61
2022/09/12 07:46:42;;;;;;;1999.90;999.90;;;16.30;99.90;;;;;;5074242;28;20044;-61
2022/09/12 07:49:08;;;;;;;1999.90;999.90;;;16.40;99.90;;;;;;5056889;28;20063;-62
2022/09/12 07:51:33;;;;;;;1999.90;999.90;;;16.50;99.90;;;;;;5056107;28;20109;-61
2022/09/12 07:53:59;;;;;;;1999.90;999.90;;;16.60;99.90;;;;;;5055243;28;20052;-61
2022/09/12 07:56:26;;;;;;;1999.90;999.90;;;16.70;99.90;;;;;;5074651;28;20052;-61
2022/09/12 07:58:54;;;;;;;1999.90;999.90;;;16.80;99.90;;;;;;5074002;28;20059;-61
2022/09/12 08:01:22;;;;;;;1999.90;999.90;;;16.90;99.90;;;;;;5056051;28;20048;-61
2022/09/12 08:03:52;;;;;;;1999.90;999.90;;;17.00;99.90;;;;;;5074316;28;20530;-62
2022/09/12 08:06:20;;;;;;;1999.90;999.90;;;17.10;99.90;;;;;;5074142;28;20060;-62
2022/09/12 08:08:46;;;;;;;1999.90;999.90;;;17.10;99.90;;;;;;5073531;28;20040;-61
2022/09/12 08:11:15;;;;;;;1999.90;999.90;;;17.20;99.90;;;;;;5056316;28;20543;-61
2022/09/12 08:13:41;;;;;;;1999.90;999.90;;;17.20;99.90;;;;;;5073413;28;20101;-62
2022/09/12 08:16:12;;;;;;;1999.90;999.90;;;17.20;99.90;;;;;;5056198;28;20494;-61
2022/09/12 08:18:39;;;;;;;1999.90;999.90;;;17.20;99.90;;;;;;5068038;28;20053;-62
2022/09/12 08:21:09;;;;;;;1999.90;999.90;;;17.30;99.90;;;;;;5035209;28;20372;-62
2022/09/12 08:23:35;;;;;;;1999.90;999.90;;;17.30;99.90;;;;;;5054436;28;20056;-61
2022/09/12 08:26:02;;;;;;;1999.90;999.90;;;17.30;99.90;;;;;;5053598;28;20033;-61
2022/09/12 08:28:30;;;;;;;1999.90;999.90;;;17.30;99.90;;;;;;5064852;28;20040;-62
2022/09/12 08:31:04;;;;;;;1999.90;999.90;;;17.40;99.90;;;;;;5073863;28;20549;-61
2022/09/12 08:33:32;;;;;;;1999.90;999.90;;;17.50;99.90;;;;;;5074003;28;20048;-61
2022/09/12 08:36:08;;;;;;;1999.90;999.90;;;17.50;99.90;;;;;;5055498;28;20052;-61
2022/09/12 08:38:35;;;;;;;1999.90;999.90;;;17.70;99.90;;;;;;5052384;28;20490;-61
2022/09/12 08:41:14;;;;;;;1999.90;999.90;;;17.80;99.90;;;;;;5052865;28;20037;-61
2022/09/12 08:44:02;;;;;;;1999.90;999.90;;;18.00;99.90;;;;;;5052928;28;20049;-61
2022/09/12 08:46:40;;;;;;;1999.90;999.90;;;18.10;99.90;;;;;;5034013;28;20093;-61
2022/09/12 08:49:12;;;;;;;1999.90;999.90;;;18.10;99.90;;;;;;5034491;28;20046;-62
2022/09/12 08:51:38;;;;;;;1999.90;999.90;;;18.10;99.90;;;;;;5034117;28;20522;-62
2022/09/12 08:54:19;;;;;;;1999.90;999.90;;;18.20;99.90;;;;;;5053125;28;20118;-62
2022/09/12 08:56:45;;;;;;;1999.90;999.90;;;18.20;99.90;;;;;;5029189;28;20034;-62
2022/09/12 08:59:12;;;;;;;1999.90;999.90;;;18.20;99.90;;;;;;5032294;28;20509;-61
2022/09/12 09:01:43;;;;;;;1999.90;999.90;;;18.30;99.90;;;;;;5057583;28;20052;-62
2022/09/12 09:04:35;;;;;;;1999.90;999.90;;;18.50;99.90;;;;;;5041266;28;20083;-62
2022/09/12 09:07:24;;;;;;;1999.90;999.90;;;18.60;99.90;;;;;;5046249;28;20060;-61
2022/09/12 09:09:59;;;;;;;1999.90;999.90;;;18.70;99.90;;;;;;5049274;28;20394;-62
2022/09/12 09:12:25;;;;;;;1999.90;999.90;;;18.80;99.90;;;;;;5061652;28;20076;-62
2022/09/12 09:15:11;;;;;;;1999.90;999.90;;;18.80;99.90;;;;;;5051629;28;20080;-62
2022/09/12 09:17:42;;;;;;;1999.90;999.90;;;19.00;99.90;;;;;;5049695;28;20085;-61
2022/09/12 09:20:28;;;;;;;1999.90;999.90;;;19.00;99.90;;;;;;5048601;28;20108;-62
2022/09/12 09:23:10;;;;;;;1999.90;999.90;;;19.10;99.90;;;;;;5053071;28;20040;-62
2022/09/12 09:25:49;;;;;;;1999.90;999.90;;;19.20;99.90;;;;;;5030804;28;20089;-62
2022/09/12 09:28:31;;;;;;;1999.90;999.90;;;19.30;99.90;;;;;;5042975;28;20073;-62
2022/09/12 09:30:57;;;;;;;1999.90;999.90;;;19.40;99.90;;;;;;5034821;28;20051;-62
2022/09/12 09:33:29;;;;;;;1999.90;999.90;;;19.40;99.90;;;;;;5052434;28;20182;-61
2022/09/12 09:36:16;;;;;;;1999.90;999.90;;;19.40;99.90;;;;;;5034350;28;20407;-62
2022/09/12 09:38:47;;;;;;;1999.90;999.90;;;19.40;99.90;;;;;;5047140;28;20076;-61
2022/09/12 09:41:30;;;;;;;1999.90;999.90;;;19.50;99.90;;;;;;5053159;28;20085;-62
2022/09/12 09:43:57;;;;;;;1999.90;999.90;;;19.60;99.90;;;;;;5052713;28;20068;-62
2022/09/12 09:46:23;;;;;;;1999.90;999.90;;;19.60;99.90;;;;;;5062675;28;20042;-61
2022/09/12 09:48:50;;;;;;;1999.90;999.90;;;19.60;99.90;;;;;;5072699;28;20501;-61
2022/09/12 09:51:23;;;;;;;1999.90;999.90;;;19.70;99.90;;;;;;5072587;28;20041;-62
2022/09/12 09:53:51;;;;;;;1999.90;999.90;;;19.80;99.90;;;;;;5069549;28;20139;-61
2022/09/12 09:56:17;;;;;;;1999.90;999.90;;;20.00;99.90;;;;;;5052275;28;20049;-61
2022/09/12 09:58:43;;;;;;;1999.90;999.90;;;20.30;99.90;;;;;;5052768;28;20123;-62
2022/09/12 10:01:15;;;;;;;1999.90;999.90;;;20.50;99.90;;;;;;5046211;28;20056;-62
2022/09/12 10:03:47;;;;;;;1999.90;999.90;;;20.70;99.90;;;;;;5047020;28;20379;-62
2022/09/12 10:06:22;;;;;;;1999.90;999.90;;;20.90;99.90;;;;;;5049115;28;20056;-61
2022/09/12 10:08:49;;;;;;;1999.90;999.90;;;20.90;99.90;;;;;;5052636;28;20049;-62
2022/09/12 10:11:19;;;;;;;1999.90;999.90;;;21.20;99.90;;;;;;5028327;28;20474;-61
2022/09/12 10:13:50;;;;;;;1999.90;999.90;;;21.60;99.90;;;;;;5041478;28;20037;-62
2022/09/12 10:16:20;;;;;;;1999.90;999.90;;;22.10;99.90;;;;;;5032822;28;20053;-62
2022/09/12 10:18:48;;;;;;;1999.90;999.90;;;22.50;99.90;;;;;;5043260;28;20052;-62
2022/09/12 10:21:28;;;;;;;1999.90;999.90;;;22.90;99.90;;;;;;5056142;28;20044;-62
2022/09/12 10:24:05;;;;;;;1999.90;999.90;;;23.30;99.90;;;;;;5053824;28;20102;-61
2022/09/12 10:26:34;;;;;;;1999.90;999.90;;;23.80;99.90;;;;;;5053446;28;20051;-62
2022/09/12 10:29:17;;;;;;;1999.90;999.90;;;24.30;99.90;;;;;;5055270;28;20048;-62
2022/09/12 10:31:48;;;;;;;1999.90;999.90;;;24.60;98.80;;;;;;5056528;28;20067;-62
2022/09/12 10:34:24;;;;;;;1999.90;999.90;;;25.00;97.60;;;;;;5055894;28;20040;-62
2022/09/12 10:36:53;;;;;;;1999.90;999.90;;;25.40;96.70;;;;;;5071639;28;20095;-62
2022/09/12 10:39:19;;;;;;;1999.90;999.90;;;25.80;96.00;;;;;;5040945;28;20048;-61
2022/09/12 10:41:45;;;;;;;1999.90;999.90;;;26.10;95.60;;;;;;5059449;28;20124;-62
2022/09/12 10:44:18;;;;;;;1999.90;999.90;;;26.30;95.10;;;;;;5055254;28;20045;-61
2022/09/12 10:46:44;;;;;;;;;;;26.60;94.60;;;;;;5053372;28;20080;-61
2022/09/12 10:49:20;;;;;;;1999.90;999.90;;;26.80;93.90;;;;;;5053963;28;20267;-62
2022/09/12 10:51:46;;;;;;;1999.90;999.90;;;27.10;93.20;;;;;;5055402;28;20602;-61
2022/09/12 10:54:14;;;;;;;1999.90;999.90;;;27.30;91.80;;;;;;5055867;28;20103;-62
2022/09/12 10:57:07;;;;;;;1999.90;999.90;;;27.30;91.90;;;;;;5054347;28;20072;-61
2022/09/12 10:59:44;;;;;;;1999.90;999.90;;;27.60;92.00;;;;;;5034531;28;20069;-62
2022/09/12 11:02:30;;;;;;;1999.90;999.90;;;28.10;90.80;;;;;;5052990;28;20045;-62
2022/09/12 11:05:16;;;;;;;1999.90;999.90;;;28.50;89.60;;;;;;5054872;28;20045;-62
2022/09/12 11:07:47;;;;;;;1999.90;999.90;;;28.70;88.30;;;;;;5037271;28;20049;-62
2022/09/12 11:10:25;;;;;;;1999.90;999.90;;;28.50;85.50;;;;;;5054754;28;20099;-62
2022/09/12 11:13:06;;;;;;;1999.90;999.90;;;28.00;87.00;;;;;;5037788;28;20383;-62
2022/09/12 11:15:40;;;;;;;1999.90;999.90;;;28.10;84.90;;;;;;5047715;28;20041;-62
2022/09/12 11:18:15;;;;;;;1999.90;999.90;;;28.00;86.60;;;;;;5054469;28;20077;-62
2022/09/12 11:20:49;;;;;;;1999.90;999.90;;;28.40;85.40;;;;;;5055456;28;20088;-62
2022/09/12 11:23:27;;;;;;;1999.90;999.90;;;28.20;85.10;;;;;;5061685;28;20060;-62
2022/09/12 11:26:02;;;;;;;1999.90;999.90;;;27.90;85.00;;;;;;5050159;28;20048;-62
2022/09/12 11:28:40;;;;;;;1999.90;999.90;;;27.90;84.70;;;;;;5052486;28;20091;-62
2022/09/12 11:31:22;;;;;;;1999.90;999.90;;;28.40;83.80;;;;;;5053710;28;20061;-62
2022/09/12 11:33:50;;;;;;;1999.90;999.90;;;28.80;80.60;;;;;;5032139;28;20037;-62
2022/09/12 11:36:31;;;;;;;1999.90;999.90;;;29.20;81.20;;;;;;5052197;28;20037;-61
2022/09/12 11:39:02;;;;;;;1999.90;999.90;;;29.80;79.30;;;;;;5034903;28;20483;-62
2022/09/12 11:41:34;;;;;;;1999.90;999.90;;;29.10;78.50;;;;;;5052668;28;20124;-62
2022/09/12 11:44:11;;;;;;;;;;;29.00;77.70;;;;;;5054025;28;20446;-61
2022/09/12 11:46:40;;;;;;;1999.90;999.90;;;29.00;77.40;;;;;;5052925;28;19920;-62
2022/09/12 11:49:15;;;;;;;1999.90;999.90;;;29.60;77.70;;;;;;5058120;28;20050;-62
2022/09/12 11:51:46;;;;;;;1999.90;999.90;;;29.60;75.60;;;;;;5074183;28;20135;-62
2022/09/12 11:54:21;;;;;;;1999.90;999.90;;;29.60;74.60;;;;;;5074796;28;20036;-62
2022/09/12 11:56:53;;;;;;;1999.90;999.90;;;29.10;73.10;;;;;;5072812;28;20049;-62
2022/09/12 11:59:39;;;;;;;1999.90;999.90;;;29.30;76.20;;;;;;5052934;28;20036;-62
2022/09/12 12:02:11;;;;;;;1999.90;999.90;;;29.40;74.80;;;;;;5030971;28;20129;-62
2022/09/12 12:04:43;;;;;;;1999.90;999.90;;;30.00;72.50;;;;;;5036541;28;20056;-62
2022/09/12 12:07:10;;;;;;;1999.90;999.90;;;30.40;72.10;;;;;;5060578;28;20045;-62
2022/09/12 12:09:48;;;;;;;1999.90;999.90;;;30.00;71.70;;;;;;5074427;28;20052;-62
2022/09/12 12:12:19;;;;;;;1999.90;999.90;;;30.40;70.80;;;;;;5074631;28;20048;-62
2022/09/12 12:14:49;;;;;;;1999.90;999.90;;;30.70;71.20;;;;;;5045727;28;20045;-62
2022/09/12 12:17:19;;;;;;;1999.90;999.90;;;31.00;70.30;;;;;;5053470;28;20040;-62
2022/09/12 12:19:47;;;;;;;1999.90;999.90;;;31.50;69.80;;;;;;5053607;28;20063;-62
2022/09/12 12:22:19;;;;;;;1999.90;999.90;;;31.70;69.30;;;;;;5047954;28;20468;-62
2022/09/12 12:25:05;;;;;;;1999.90;999.90;;;31.50;69.40;;;;;;5054019;28;20131;-61
2022/09/12 12:27:43;;;;;;;1999.90;999.90;;;31.20;69.30;;;;;;5053395;28;20053;-62